Aviation Digital Data Service (ADDS)

Output produced by METARs form (2230 UTC 24 March 2019)
found at http://www.aviationweather.gov/metar/data/
 
VNKT 242150Z 09003KT 2500 BR FEW015 13/11 Q1017 NOSIG
TAF VNKT 241700Z 2418/2518 10003KT 5000 BR FEW015 
     BECMG 2500/2502 VRB02KT 3000 BR FEW010 
     PROB40 2501/2503 1500 BR 
     BECMG 2504/2505 15004KT 5000 BR/HZ FEW015 
     BECMG 2507/2508 23008KT 7000 FEW020 SCT030 
     PROB30 2508/2514 VRB12KT 5000 -TSRA FEW025CB BKN100 
     BECMG 2514/2515 15003KT 6000 FEW015 SCT030 BKN100 
     PROB30 2514/2520 VRB10KT 5000 -TSRA FEW025CB